createdAt,value
2022-09-09T00:00:29.035Z,16.78
2022-09-09T00:01:29.022Z,16.75
2022-09-09T00:02:29.205Z,16.75
2022-09-09T00:03:29.220Z,16.73
2022-09-09T00:04:29.040Z,16.71
2022-09-09T00:05:29.052Z,16.71
2022-09-09T00:06:29.035Z,16.70
2022-09-09T00:07:29.057Z,16.73
2022-09-09T00:08:29.102Z,16.61
2022-09-09T00:09:29.059Z,16.64
2022-09-09T00:12:13.797Z,16.73
2022-09-09T00:13:13.557Z,16.64
2022-09-09T00:14:13.804Z,16.56
2022-09-09T00:15:13.467Z,16.58
2022-09-09T00:16:13.610Z,16.61
2022-09-09T00:17:13.499Z,16.56
2022-09-09T00:18:13.480Z,16.53
2022-09-09T00:19:13.499Z,16.53
2022-09-09T00:20:13.474Z,16.56
2022-09-09T00:21:13.485Z,16.56
2022-09-09T00:22:13.479Z,16.46
2022-09-09T00:23:13.491Z,16.50
2022-09-09T00:24:13.513Z,16.45
2022-09-09T00:25:13.477Z,16.56
2022-09-09T00:26:13.483Z,16.45
2022-09-09T00:27:13.484Z,16.49
2022-09-09T00:28:13.497Z,16.34
2022-09-09T00:29:13.517Z,16.34
2022-09-09T00:30:13.518Z,16.30
2022-09-09T00:31:13.582Z,16.25
2022-09-09T00:32:13.497Z,16.17
2022-09-09T00:33:14.170Z,16.15
2022-09-09T00:34:13.506Z,16.09
2022-09-09T00:35:13.517Z,16.11
2022-09-09T00:36:13.511Z,16.15
2022-09-09T00:37:13.499Z,16.14
2022-09-09T00:38:13.506Z,16.17
2022-09-09T00:39:13.506Z,16.17
2022-09-09T00:40:13.607Z,16.17
2022-09-09T00:41:13.517Z,16.21
2022-09-09T00:42:13.532Z,16.21
2022-09-09T00:43:13.520Z,16.08
2022-09-09T00:44:13.513Z,16.12
2022-09-09T00:45:13.512Z,16.14
2022-09-09T00:46:13.566Z,16.07
2022-09-09T00:47:13.529Z,16.12
2022-09-09T00:48:13.535Z,16.08
2022-09-09T00:49:13.522Z,16.17
2022-09-09T00:50:13.528Z,16.15
2022-09-09T00:51:13.523Z,16.14
2022-09-09T00:52:13.546Z,16.14
2022-09-09T00:53:13.572Z,16.17
2022-09-09T00:54:13.534Z,16.20
2022-09-09T00:55:13.526Z,16.20
2022-09-09T00:56:13.524Z,16.17
2022-09-09T00:57:13.563Z,16.15
2022-09-09T00:58:13.545Z,16.17
2022-09-09T00:59:13.539Z,16.09
2022-09-09T01:00:13.549Z,16.12
2022-09-09T01:01:13.590Z,16.12
2022-09-09T01:02:13.573Z,16.02
2022-09-09T01:03:13.552Z,15.97
2022-09-09T01:04:13.546Z,15.97
2022-09-09T01:05:13.555Z,16.05
2022-09-09T01:06:13.558Z,15.97
2022-09-09T01:07:13.558Z,15.92
2022-09-09T01:08:13.565Z,16.00
2022-09-09T01:09:13.563Z,15.96
2022-09-09T01:11:45.637Z,16.00
2022-09-09T01:12:45.685Z,15.97
2022-09-09T01:13:45.638Z,15.97
2022-09-09T01:14:45.670Z,16.00
2022-09-09T01:15:45.636Z,15.87
2022-09-09T01:16:45.727Z,15.92
2022-09-09T01:17:45.651Z,15.82
2022-09-09T01:18:45.636Z,15.82
2022-09-09T01:19:45.665Z,15.74
2022-09-09T01:20:45.647Z,15.65
2022-09-09T01:21:45.647Z,15.72
2022-09-09T01:22:45.651Z,15.64
2022-09-09T01:23:45.650Z,15.69
2022-09-09T01:24:45.683Z,15.62
2022-09-09T01:25:45.682Z,15.74
2022-09-09T01:26:45.681Z,15.65
2022-09-09T01:27:45.661Z,15.69
2022-09-09T01:28:45.660Z,15.71
2022-09-09T01:29:45.666Z,15.74
2022-09-09T01:30:45.718Z,15.71
2022-09-09T01:31:45.660Z,15.69
2022-09-09T01:32:45.693Z,15.71
2022-09-09T01:33:45.667Z,15.65
2022-09-09T01:34:45.676Z,15.56
2022-09-09T01:35:45.664Z,15.67
2022-09-09T01:36:45.663Z,15.62
2022-09-09T01:37:45.693Z,15.67
2022-09-09T01:38:45.677Z,15.64
2022-09-09T01:39:45.729Z,15.53
2022-09-09T01:40:45.683Z,15.56
2022-09-09T01:41:45.676Z,15.51
2022-09-09T01:42:45.697Z,15.62
2022-09-09T01:43:45.684Z,15.57
2022-09-09T01:44:45.689Z,15.56
2022-09-09T01:45:45.706Z,15.54
2022-09-09T01:46:45.686Z,15.65
2022-09-09T01:47:45.672Z,15.57
2022-09-09T01:48:45.682Z,15.62
2022-09-09T01:49:45.716Z,15.56
2022-09-09T01:50:45.692Z,15.62
2022-09-09T01:51:45.684Z,15.57
2022-09-09T01:52:45.693Z,15.49
2022-09-09T01:53:45.700Z,15.50
2022-09-09T01:54:45.701Z,15.57
2022-09-09T01:55:45.759Z,15.56
2022-09-09T01:56:45.702Z,15.54
2022-09-09T01:57:45.711Z,15.51
2022-09-09T01:58:45.708Z,15.44
2022-09-09T01:59:45.712Z,15.41
2022-09-09T02:00:45.715Z,15.50
2022-09-09T02:01:45.705Z,15.41
2022-09-09T02:02:45.782Z,15.39
2022-09-09T02:03:45.717Z,15.34
2022-09-09T02:04:45.725Z,15.35
2022-09-09T02:05:45.723Z,15.20
2022-09-09T02:06:45.735Z,15.31
2022-09-09T02:07:45.766Z,15.19
2022-09-09T02:08:45.723Z,15.17
2022-09-09T02:09:45.710Z,15.21
2022-09-09T02:10:45.713Z,15.20
2022-09-09T02:11:45.714Z,15.28
2022-09-09T02:12:45.732Z,15.21
2022-09-09T02:13:45.718Z,15.27
2022-09-09T02:14:45.722Z,15.17
2022-09-09T02:15:45.725Z,15.25
2022-09-09T02:16:45.767Z,15.31
2022-09-09T02:17:45.741Z,15.31
2022-09-09T02:18:45.726Z,15.35
2022-09-09T02:19:45.743Z,15.35
2022-09-09T02:20:45.741Z,15.36
2022-09-09T02:21:45.732Z,15.36
2022-09-09T02:22:45.766Z,15.34
2022-09-09T02:23:45.746Z,15.35
2022-09-09T02:24:45.719Z,15.35
2022-09-09T02:25:45.763Z,15.39
2022-09-09T02:26:45.729Z,15.41
2022-09-09T02:27:45.739Z,15.44
2022-09-09T02:28:45.727Z,15.38
2022-09-09T02:29:45.734Z,15.34
2022-09-09T02:30:45.831Z,15.29
2022-09-09T02:31:45.735Z,15.19
2022-09-09T02:32:45.747Z,15.27
2022-09-09T02:33:45.735Z,15.21
2022-09-09T02:34:45.737Z,15.25
2022-09-09T02:35:45.763Z,15.16
2022-09-09T02:36:45.745Z,15.25
2022-09-09T02:37:45.741Z,15.14
2022-09-09T02:38:45.752Z,15.14
2022-09-09T02:39:45.807Z,15.23
2022-09-09T02:40:45.737Z,15.19
2022-09-09T02:41:45.771Z,15.14
2022-09-09T02:42:45.772Z,15.20
2022-09-09T02:43:45.749Z,15.16
2022-09-09T02:44:45.753Z,15.16
2022-09-09T02:45:45.792Z,15.19
2022-09-09T02:46:45.762Z,15.20
2022-09-09T02:47:45.775Z,15.16
2022-09-09T02:48:45.753Z,15.20
2022-09-09T02:49:45.762Z,15.09
2022-09-09T02:50:45.754Z,15.14
2022-09-09T02:51:45.763Z,15.13
2022-09-09T02:52:45.778Z,15.17
2022-09-09T02:53:45.754Z,15.20
2022-09-09T02:54:45.778Z,15.16
2022-09-09T02:55:45.757Z,15.11
2022-09-09T02:56:45.776Z,15.17
2022-09-09T02:57:45.766Z,15.14
2022-09-09T02:58:45.790Z,15.14
2022-09-09T02:59:45.752Z,15.16
2022-09-09T03:00:45.795Z,15.09
2022-09-09T03:01:45.781Z,15.06
2022-09-09T03:02:45.879Z,15.09
2022-09-09T03:03:45.754Z,14.95
2022-09-09T03:04:45.764Z,14.99
2022-09-09T03:05:45.761Z,14.94
2022-09-09T03:06:45.769Z,14.94
2022-09-09T03:07:45.781Z,14.96
2022-09-09T03:08:49.569Z,15.01
2022-09-09T03:09:45.768Z,14.96
2022-09-09T03:10:45.767Z,15.01
2022-09-09T03:11:45.784Z,14.95
2022-09-09T03:12:45.788Z,14.98
2022-09-09T03:13:45.791Z,14.89
2022-09-09T03:14:45.765Z,14.84
2022-09-09T03:15:45.815Z,14.81
2022-09-09T03:16:45.802Z,14.75
2022-09-09T03:17:45.776Z,14.86
2022-09-09T03:18:45.781Z,14.84
2022-09-09T03:19:45.783Z,14.86
2022-09-09T03:20:45.782Z,14.81
2022-09-09T03:21:45.802Z,14.84
2022-09-09T03:22:45.814Z,14.88
2022-09-09T03:23:45.784Z,14.86
2022-09-09T03:24:45.788Z,14.86
2022-09-09T03:25:45.787Z,14.92
2022-09-09T03:26:45.814Z,14.80
2022-09-09T03:27:45.803Z,14.75
2022-09-09T03:28:45.802Z,14.80
2022-09-09T03:29:45.806Z,14.73
2022-09-09T03:30:45.783Z,14.75
2022-09-09T03:31:45.806Z,14.72
2022-09-09T03:32:48.905Z,14.77
2022-09-09T03:33:45.788Z,14.80
2022-09-09T03:34:45.775Z,14.80
2022-09-09T03:35:45.781Z,14.80
2022-09-09T03:36:45.797Z,14.77
2022-09-09T03:37:45.806Z,14.77
2022-09-09T03:38:45.788Z,14.81
2022-09-09T03:39:45.858Z,14.75
2022-09-09T03:40:45.806Z,14.73
2022-09-09T03:41:45.802Z,14.81
2022-09-09T03:42:45.813Z,14.77
2022-09-09T03:43:45.795Z,14.77
2022-09-09T03:44:45.781Z,14.78
2022-09-09T03:45:45.843Z,14.73
2022-09-09T03:46:45.816Z,14.72
2022-09-09T03:47:45.808Z,14.65
2022-09-09T03:48:45.801Z,14.65
2022-09-09T03:49:45.804Z,14.75
2022-09-09T03:50:45.825Z,14.72
2022-09-09T03:51:45.804Z,14.80
2022-09-09T03:54:41.911Z,14.80
2022-09-09T03:55:18.857Z,14.73
2022-09-09T03:56:18.856Z,14.73
2022-09-09T03:57:18.867Z,14.64
2022-09-09T03:58:18.847Z,14.73
2022-09-09T03:59:18.846Z,14.75
2022-09-09T04:00:18.844Z,14.75
2022-09-09T04:01:19.042Z,14.80
2022-09-09T04:02:18.912Z,14.72
2022-09-09T04:03:18.861Z,14.75
2022-09-09T04:04:18.855Z,14.77
2022-09-09T04:05:18.852Z,14.78
2022-09-09T04:06:18.846Z,14.83
2022-09-09T04:07:18.856Z,14.84
2022-09-09T04:08:18.860Z,14.75
2022-09-09T04:09:18.868Z,14.78
2022-09-09T04:10:18.881Z,14.86
2022-09-09T04:11:18.861Z,14.77
2022-09-09T04:12:18.884Z,14.78
2022-09-09T04:13:18.868Z,14.77
2022-09-09T04:14:18.880Z,14.81
2022-09-09T04:15:18.885Z,14.78
2022-09-09T04:16:18.910Z,14.78
2022-09-09T04:17:18.914Z,14.75
2022-09-09T04:18:20.107Z,14.78
2022-09-09T04:19:18.878Z,14.69
2022-09-09T04:20:18.876Z,14.77
2022-09-09T04:21:18.876Z,14.65
2022-09-09T04:22:18.879Z,14.65
2022-09-09T04:23:18.890Z,14.72
2022-09-09T04:24:18.897Z,14.72
2022-09-09T04:25:18.894Z,14.61
2022-09-09T04:26:18.890Z,14.55
2022-09-09T04:27:18.881Z,14.60
2022-09-09T04:28:18.889Z,14.60
2022-09-09T04:29:18.889Z,14.62
2022-09-09T04:30:18.934Z,14.61
2022-09-09T04:33:05.751Z,14.58
2022-09-09T04:33:50.994Z,14.60
2022-09-09T04:34:50.943Z,14.60
2022-09-09T04:35:50.947Z,14.55
2022-09-09T04:36:50.959Z,14.69
2022-09-09T04:37:50.955Z,14.64
2022-09-09T04:38:50.946Z,14.65
2022-09-09T04:39:51.031Z,14.65
2022-09-09T04:40:50.949Z,14.61
2022-09-09T04:41:50.938Z,14.58
2022-09-09T04:42:50.942Z,14.65
2022-09-09T04:43:50.945Z,14.64
2022-09-09T04:44:50.953Z,14.60
2022-09-09T04:45:51.021Z,14.58
2022-09-09T04:46:50.954Z,14.60
2022-09-09T04:47:50.960Z,14.60
2022-09-09T04:48:50.957Z,14.65
2022-09-09T04:49:50.945Z,14.62
2022-09-09T04:50:50.982Z,14.57
2022-09-09T04:51:50.945Z,14.61
2022-09-09T04:52:50.946Z,14.61
2022-09-09T04:53:50.957Z,14.64
2022-09-09T04:54:50.944Z,14.65
2022-09-09T04:55:50.974Z,14.61
2022-09-09T04:56:50.957Z,14.70
2022-09-09T04:57:50.958Z,14.73
2022-09-09T04:58:50.964Z,14.73
2022-09-09T04:59:50.950Z,14.73
2022-09-09T05:00:50.995Z,14.72
2022-09-09T05:01:50.973Z,14.77
2022-09-09T05:02:50.961Z,14.75
2022-09-09T05:03:50.963Z,14.75
2022-09-09T05:04:50.957Z,14.73
2022-09-09T05:05:50.977Z,14.78
2022-09-09T05:06:50.991Z,14.81
2022-09-09T05:07:50.965Z,14.75
2022-09-09T05:08:50.972Z,14.75
2022-09-09T05:09:50.963Z,14.80
2022-09-09T05:10:50.960Z,14.83
2022-09-09T05:11:50.978Z,14.83
2022-09-09T05:12:50.999Z,14.94
2022-09-09T05:13:50.964Z,14.95
2022-09-09T05:14:50.967Z,14.91
2022-09-09T05:15:51.686Z,14.89
2022-09-09T05:16:51.589Z,14.99
2022-09-09T05:17:50.986Z,14.99
2022-09-09T05:18:50.997Z,14.95
2022-09-09T05:19:51.008Z,14.98
2022-09-09T05:20:50.982Z,15.09
2022-09-09T05:21:50.991Z,15.10
2022-09-09T05:22:50.996Z,14.99
2022-09-09T05:23:50.986Z,15.09
2022-09-09T05:24:50.970Z,15.11
2022-09-09T05:25:50.970Z,15.14
2022-09-09T05:26:50.978Z,15.16
2022-09-09T05:27:51.008Z,15.17
2022-09-09T05:28:50.997Z,15.19
2022-09-09T05:29:50.975Z,15.25
2022-09-09T05:30:50.988Z,15.27
2022-09-09T05:31:51.068Z,15.27
2022-09-09T05:32:50.984Z,15.25
2022-09-09T05:33:51.000Z,15.31
2022-09-09T05:34:50.988Z,15.32
2022-09-09T05:35:50.982Z,15.28
2022-09-09T05:36:50.993Z,15.32
2022-09-09T05:37:51.010Z,15.39
2022-09-09T05:38:51.282Z,15.39
2022-09-09T05:39:51.047Z,15.36
2022-09-09T05:40:50.991Z,15.35
2022-09-09T05:41:51.004Z,15.35
2022-09-09T05:42:50.980Z,15.35
2022-09-09T05:43:50.980Z,15.43
2022-09-09T05:44:50.984Z,15.47
2022-09-09T05:45:50.989Z,15.43
2022-09-09T05:46:51.041Z,15.41
2022-09-09T05:47:50.992Z,15.43
2022-09-09T05:48:51.009Z,15.43
2022-09-09T05:49:51.014Z,15.41
2022-09-09T05:50:50.983Z,15.44
2022-09-09T05:51:50.997Z,15.56
2022-09-09T05:52:51.026Z,15.53
2022-09-09T05:53:50.993Z,15.54
2022-09-09T05:54:50.986Z,15.53
2022-09-09T05:55:51.001Z,15.64
2022-09-09T05:56:51.868Z,15.62
2022-09-09T05:57:50.990Z,15.67
2022-09-09T05:58:51.009Z,15.71
2022-09-09T05:59:50.998Z,15.69
2022-09-09T06:00:50.991Z,15.80
2022-09-09T06:01:51.093Z,15.83
2022-09-09T06:02:51.138Z,15.86
2022-09-09T06:03:51.006Z,15.93
2022-09-09T06:04:50.991Z,16.00
2022-09-09T06:05:50.998Z,15.93
2022-09-09T06:06:51.017Z,16.05
2022-09-09T06:07:51.012Z,16.00
2022-09-09T06:08:50.993Z,16.09
2022-09-09T06:09:51.006Z,16.23
2022-09-09T06:10:50.994Z,16.25
2022-09-09T06:11:51.028Z,16.33
2022-09-09T06:12:51.009Z,16.33
2022-09-09T06:13:50.998Z,16.43
2022-09-09T06:14:51.036Z,16.46
2022-09-09T06:15:51.110Z,16.57
2022-09-09T06:16:51.022Z,16.63
2022-09-09T06:17:51.027Z,16.75
2022-09-09T06:18:51.015Z,16.70
2022-09-09T06:19:51.020Z,16.82
2022-09-09T06:20:51.033Z,16.91
2022-09-09T06:21:51.027Z,17.04
2022-09-09T06:22:51.018Z,17.07
2022-09-09T06:23:51.040Z,17.14
2022-09-09T06:24:51.034Z,17.06
2022-09-09T06:25:51.048Z,17.04
2022-09-09T06:26:51.019Z,17.03
2022-09-09T06:27:51.055Z,16.93
2022-09-09T06:28:51.040Z,16.86
2022-09-09T06:29:51.024Z,16.97
2022-09-09T06:30:51.032Z,17.04
2022-09-09T06:31:51.080Z,16.89
2022-09-09T06:32:51.027Z,16.96
2022-09-09T06:33:51.033Z,17.00
2022-09-09T06:34:51.031Z,17.06
2022-09-09T06:35:51.038Z,17.15
2022-09-09T06:36:51.052Z,17.31
2022-09-09T06:37:51.063Z,17.34
2022-09-09T06:38:51.037Z,17.34
2022-09-09T06:39:51.114Z,17.30
2022-09-09T06:40:51.036Z,17.21
2022-09-09T06:41:51.053Z,17.25
2022-09-09T06:42:51.054Z,17.23
2022-09-09T06:43:51.048Z,17.75
2022-09-09T06:44:51.071Z,18.07
2022-09-09T06:45:51.083Z,18.51
2022-09-09T06:46:51.124Z,18.92
2022-09-09T06:47:51.058Z,19.28
2022-09-09T06:48:51.055Z,19.36
2022-09-09T06:49:51.058Z,19.68
2022-09-09T06:50:51.095Z,19.87
2022-09-09T06:51:51.063Z,20.16
2022-09-09T06:52:51.074Z,20.52
2022-09-09T06:53:51.086Z,21.03
2022-09-09T06:54:51.086Z,21.38
2022-09-09T06:55:51.077Z,21.59
2022-09-09T06:56:51.068Z,22.02
2022-09-09T06:57:51.077Z,22.37
2022-09-09T06:58:51.115Z,22.64
2022-09-09T06:59:51.087Z,22.37
2022-09-09T07:00:51.119Z,22.57
2022-09-09T07:01:55.454Z,22.61
2022-09-09T07:02:51.077Z,22.68
2022-09-09T07:03:51.087Z,22.86
2022-09-09T07:04:51.076Z,23.04
2022-09-09T07:05:51.095Z,23.13
2022-09-09T07:06:51.095Z,23.28
2022-09-09T07:07:51.122Z,23.47
2022-09-09T07:08:56.174Z,23.57
2022-09-09T07:09:51.146Z,23.69
2022-09-09T07:10:51.104Z,23.95
2022-09-09T07:11:51.131Z,24.00
2022-09-09T07:12:51.127Z,23.88
2022-09-09T07:13:51.134Z,23.80
2022-09-09T07:14:51.120Z,23.55
2022-09-09T07:15:51.170Z,23.39
2022-09-09T07:16:51.139Z,23.09
2022-09-09T07:17:51.134Z,22.77
2022-09-09T07:18:51.137Z,22.73
2022-09-09T07:19:51.153Z,22.70
2022-09-09T07:20:51.157Z,22.72
2022-09-09T07:21:51.160Z,22.91
2022-09-09T07:22:51.162Z,23.20
2022-09-09T07:23:51.164Z,23.09
2022-09-09T07:24:51.157Z,23.17
2022-09-09T07:25:51.154Z,23.39
2022-09-09T07:26:51.167Z,23.68
2022-09-09T07:27:51.160Z,24.02
2022-09-09T07:28:51.203Z,24.15
2022-09-09T07:29:51.176Z,24.22
2022-09-09T07:30:51.195Z,24.35
2022-09-09T07:31:51.192Z,24.69
2022-09-09T07:32:51.178Z,24.67
2022-09-09T07:33:51.205Z,24.62
2022-09-09T07:34:51.203Z,24.52
2022-09-09T07:35:51.195Z,24.34
2022-09-09T07:36:51.212Z,24.39
2022-09-09T07:37:51.330Z,24.32
2022-09-09T07:38:51.215Z,24.35
2022-09-09T07:39:51.242Z,24.34
2022-09-09T07:40:51.222Z,23.91
2022-09-09T07:41:51.219Z,23.72
2022-09-09T07:42:51.239Z,23.42
2022-09-09T07:43:51.238Z,23.50
2022-09-09T07:44:51.245Z,23.54
2022-09-09T07:45:51.248Z,23.72
2022-09-09T07:46:51.279Z,23.54
2022-09-09T07:47:51.264Z,23.35
2022-09-09T07:48:51.251Z,23.48
2022-09-09T07:49:51.292Z,23.68
2022-09-09T07:50:51.275Z,23.87
2022-09-09T07:51:51.277Z,24.08
2022-09-09T07:52:51.289Z,24.28
2022-09-09T07:53:51.279Z,24.27
2022-09-09T07:54:51.304Z,24.27
2022-09-09T07:55:51.298Z,23.93
2022-09-09T07:56:51.295Z,23.69
2022-09-09T07:57:51.309Z,23.57
2022-09-09T07:58:51.300Z,23.42
2022-09-09T07:59:51.334Z,23.27
2022-09-09T08:00:51.366Z,23.05
2022-09-09T08:01:51.340Z,22.92
2022-09-09T08:02:51.357Z,22.72
2022-09-09T08:03:56.342Z,22.64
2022-09-09T08:04:51.337Z,22.54
2022-09-09T08:05:51.365Z,22.37
2022-09-09T08:06:51.338Z,22.39
2022-09-09T08:07:51.358Z,22.30
2022-09-09T08:08:51.368Z,22.24
2022-09-09T08:09:51.371Z,22.30
2022-09-09T08:10:51.381Z,22.20
2022-09-09T08:11:51.377Z,22.02
2022-09-09T08:13:07.708Z,22.02
2022-09-09T08:13:54.355Z,21.91
2022-09-09T08:14:51.393Z,21.68
2022-09-09T08:15:51.438Z,21.54
2022-09-09T08:16:51.402Z,21.38
2022-09-09T08:17:51.427Z,21.37
2022-09-09T08:18:51.399Z,21.25
2022-09-09T08:19:51.399Z,21.28
2022-09-09T08:20:51.456Z,21.21
2022-09-09T08:21:51.441Z,21.17
2022-09-09T08:22:51.428Z,21.07
2022-09-09T08:23:55.807Z,20.92
2022-09-09T08:24:51.425Z,20.89
2022-09-09T08:25:51.447Z,20.84
2022-09-09T08:26:51.447Z,20.82
2022-09-09T08:27:51.446Z,20.85
2022-09-09T08:28:51.442Z,20.84
2022-09-09T08:29:51.461Z,20.77
2022-09-09T08:30:51.463Z,20.79
2022-09-09T08:31:51.477Z,20.67
2022-09-09T08:32:53.828Z,20.59
2022-09-09T08:33:53.336Z,20.58
2022-09-09T08:34:54.651Z,20.51
2022-09-09T08:35:51.483Z,20.50
2022-09-09T08:36:51.483Z,20.48
2022-09-09T08:37:51.758Z,20.51
2022-09-09T08:38:51.484Z,20.64
2022-09-09T08:39:53.910Z,20.55
2022-09-09T08:40:51.544Z,20.57
2022-09-09T08:41:51.518Z,20.64
2022-09-09T08:42:51.548Z,20.57
2022-09-09T08:43:51.542Z,20.58
2022-09-09T08:44:51.510Z,20.55
2022-09-09T08:45:51.539Z,20.57
2022-09-09T08:46:51.593Z,20.51
2022-09-09T08:47:51.532Z,20.55
2022-09-09T08:48:51.532Z,20.57
2022-09-09T08:49:51.576Z,20.64
2022-09-09T08:50:51.540Z,20.61
2022-09-09T08:51:51.557Z,20.57
2022-09-09T08:52:51.531Z,20.52
2022-09-09T08:53:52.360Z,20.62
2022-09-09T08:54:52.811Z,20.62
2022-09-09T08:55:51.556Z,20.70
2022-09-09T08:56:51.557Z,20.73
2022-09-09T08:57:51.553Z,20.67
2022-09-09T08:58:51.593Z,20.80
2022-09-09T08:59:51.571Z,20.94
2022-09-09T09:00:51.563Z,20.94
2022-09-09T09:01:51.639Z,20.99
2022-09-09T09:02:51.588Z,21.12
2022-09-09T09:03:51.610Z,21.10
2022-09-09T09:04:51.646Z,21.04
2022-09-09T09:05:51.593Z,20.91
2022-09-09T09:06:51.581Z,20.97
2022-09-09T09:07:51.594Z,20.92
2022-09-09T09:08:51.594Z,20.95
2022-09-09T09:09:51.628Z,20.89
2022-09-09T09:10:51.621Z,20.94
2022-09-09T09:11:51.614Z,20.95
2022-09-09T09:12:51.613Z,20.94
2022-09-09T09:13:51.619Z,20.94
2022-09-09T09:14:51.639Z,20.89
2022-09-09T09:15:51.678Z,20.97
2022-09-09T09:16:51.636Z,21.07
2022-09-09T09:17:51.625Z,21.19
2022-09-09T09:18:51.642Z,21.34
2022-09-09T09:19:51.657Z,21.35
2022-09-09T09:20:51.664Z,21.42
2022-09-09T09:21:51.657Z,21.37
2022-09-09T09:22:51.669Z,21.38
2022-09-09T09:23:51.648Z,21.54
2022-09-09T09:24:51.662Z,21.65
2022-09-09T09:25:51.674Z,21.65
2022-09-09T09:26:51.687Z,21.67
2022-09-09T09:27:51.675Z,21.80
2022-09-09T09:28:51.669Z,21.91
2022-09-09T09:30:21.187Z,21.96
2022-09-09T09:30:51.738Z,22.06
2022-09-09T09:31:51.698Z,22.03
2022-09-09T09:32:51.697Z,22.14
2022-09-09T09:33:51.692Z,22.20
2022-09-09T09:34:51.724Z,22.30
2022-09-09T09:35:51.705Z,22.45
2022-09-09T09:36:51.709Z,22.55
2022-09-09T09:40:07.016Z,22.88
2022-09-09T09:40:51.728Z,23.02
2022-09-09T09:41:51.729Z,23.16
2022-09-09T09:42:51.723Z,23.10
2022-09-09T09:43:51.746Z,23.23
2022-09-09T09:44:51.734Z,23.19
2022-09-09T09:46:07.294Z,23.32
2022-09-09T09:46:51.808Z,23.43
2022-09-09T09:47:51.777Z,23.54
2022-09-09T09:48:51.770Z,23.58
2022-09-09T09:49:51.787Z,23.68
2022-09-09T09:52:51.529Z,24.25
2022-09-09T09:53:23.835Z,24.35
2022-09-09T09:54:23.841Z,24.34
2022-09-09T09:55:23.839Z,24.53
2022-09-09T09:56:24.538Z,24.49
2022-09-09T09:57:23.903Z,24.50
2022-09-09T09:58:23.882Z,24.60
2022-09-09T09:59:38.697Z,24.61
2022-09-09T10:00:23.887Z,24.76
2022-09-09T10:01:23.968Z,24.68
2022-09-09T10:02:23.918Z,24.69
2022-09-09T10:03:23.902Z,24.64
2022-09-09T10:04:23.978Z,24.71
2022-09-09T10:05:27.224Z,24.73
2022-09-09T10:06:23.948Z,24.78
2022-09-09T10:07:23.938Z,24.87
2022-09-09T10:08:23.973Z,25.06
2022-09-09T10:09:23.950Z,25.33
2022-09-09T10:10:23.981Z,25.46
2022-09-09T10:11:23.984Z,25.38
2022-09-09T10:12:23.978Z,25.32
2022-09-09T10:13:24.019Z,25.10
2022-09-09T10:14:24.017Z,24.69
2022-09-09T10:15:23.998Z,24.68
2022-09-09T10:16:24.087Z,24.67
2022-09-09T10:17:24.036Z,24.69
2022-09-09T10:18:24.029Z,24.78
2022-09-09T10:19:24.042Z,24.85
2022-09-09T10:20:24.054Z,24.93
2022-09-09T10:21:24.059Z,25.21
2022-09-09T10:22:24.086Z,25.25
2022-09-09T10:23:24.119Z,25.08
2022-09-09T10:24:24.183Z,25.20
2022-09-09T10:25:24.099Z,25.23
2022-09-09T10:26:24.095Z,25.39
2022-09-09T10:27:24.109Z,25.76
2022-09-09T10:28:24.123Z,26.09
2022-09-09T10:29:24.113Z,26.30
2022-09-09T10:30:24.139Z,26.13
2022-09-09T10:31:24.165Z,26.07
2022-09-09T10:32:24.159Z,25.94
2022-09-09T10:33:24.176Z,25.90
2022-09-09T10:34:26.499Z,25.88
2022-09-09T10:35:24.167Z,26.20
2022-09-09T10:36:24.178Z,26.72
2022-09-09T10:37:24.188Z,26.75
2022-09-09T10:38:24.218Z,26.75
2022-09-09T10:39:24.226Z,26.37
2022-09-09T10:40:24.261Z,26.13
2022-09-09T10:41:24.231Z,26.23
2022-09-09T10:42:24.252Z,26.91
2022-09-09T10:43:24.276Z,27.57
2022-09-09T10:44:24.279Z,27.81
2022-09-09T10:45:24.259Z,28.04
2022-09-09T10:46:24.353Z,28.31
2022-09-09T10:47:27.859Z,28.58
2022-09-09T10:48:24.344Z,28.74
2022-09-09T10:49:24.325Z,28.95
2022-09-09T10:50:28.076Z,29.30
2022-09-09T10:51:24.337Z,29.02
2022-09-09T10:52:24.373Z,29.19
2022-09-09T10:53:24.346Z,29.43
2022-09-09T10:54:24.354Z,29.78
2022-09-09T10:55:29.235Z,29.05
2022-09-09T10:56:24.387Z,28.52
2022-09-09T10:57:24.422Z,27.90
2022-09-09T10:58:24.413Z,27.46
2022-09-09T10:59:24.436Z,27.43
2022-09-09T11:00:24.444Z,28.06
2022-09-09T11:01:24.522Z,28.44
2022-09-09T11:02:24.481Z,28.95
2022-09-09T11:03:24.485Z,29.15
2022-09-09T11:04:24.532Z,29.06
2022-09-09T11:05:24.495Z,28.71
2022-09-09T11:06:24.573Z,28.43
2022-09-09T11:07:24.545Z,28.61
2022-09-09T11:08:24.547Z,28.74
2022-09-09T11:09:24.561Z,28.29
2022-09-09T11:10:25.148Z,28.02
2022-09-09T11:11:24.571Z,27.90
2022-09-09T11:12:24.603Z,28.70
2022-09-09T11:13:24.604Z,28.92
2022-09-09T11:14:24.602Z,28.59
2022-09-09T11:15:24.635Z,28.36
2022-09-09T11:16:24.679Z,28.59
2022-09-09T11:17:24.677Z,28.12
2022-09-09T11:18:24.668Z,27.84
2022-09-09T11:19:24.667Z,27.37
2022-09-09T11:20:24.722Z,26.88
2022-09-09T11:21:24.699Z,26.52
2022-09-09T11:22:24.703Z,26.40
2022-09-09T11:23:24.729Z,26.18
2022-09-09T11:24:24.729Z,26.07
2022-09-09T11:25:24.749Z,25.95
2022-09-09T11:26:24.752Z,25.64
2022-09-09T11:27:24.788Z,25.33
2022-09-09T11:28:24.865Z,25.21
2022-09-09T11:29:24.786Z,25.17
2022-09-09T11:30:51.274Z,25.15
2022-09-09T11:31:24.849Z,25.13
2022-09-09T11:32:24.820Z,24.99
2022-09-09T11:33:24.818Z,25.03
2022-09-09T11:34:24.861Z,25.03
2022-09-09T11:35:24.851Z,24.95
2022-09-09T11:36:24.844Z,24.96
2022-09-09T11:37:24.875Z,24.91
2022-09-09T11:38:24.880Z,24.88
2022-09-09T11:39:24.879Z,24.84
2022-09-09T11:40:24.890Z,24.73
2022-09-09T11:41:24.895Z,24.69
2022-09-09T11:42:24.899Z,24.69
2022-09-09T11:43:24.905Z,24.60
2022-09-09T11:44:24.955Z,24.91
2022-09-09T11:45:24.929Z,25.47
2022-09-09T11:46:24.945Z,25.72
2022-09-09T11:47:24.934Z,26.09
2022-09-09T11:48:24.936Z,26.40
2022-09-09T11:49:24.984Z,26.66
2022-09-09T11:50:24.954Z,26.77
2022-09-09T11:51:24.971Z,26.69
2022-09-09T11:52:24.973Z,26.66
2022-09-09T11:53:24.982Z,26.44
2022-09-09T11:54:25.024Z,26.67
2022-09-09T11:55:24.988Z,26.88
2022-09-09T11:56:25.008Z,26.92
2022-09-09T11:57:25.017Z,26.99
2022-09-09T11:58:25.015Z,26.99
2022-09-09T11:59:25.038Z,27.21
2022-09-09T12:00:25.029Z,27.18
2022-09-09T12:01:25.044Z,27.24
2022-09-09T12:02:25.175Z,27.27
2022-09-09T12:03:25.074Z,27.36
2022-09-09T12:04:25.055Z,27.04
2022-09-09T12:05:25.130Z,26.67
2022-09-09T12:06:25.116Z,26.20
2022-09-09T12:07:25.085Z,26.07
2022-09-09T12:08:25.132Z,26.12
2022-09-09T12:09:25.119Z,26.35
2022-09-09T12:10:25.119Z,26.50
2022-09-09T12:11:25.148Z,26.67
2022-09-09T12:12:25.134Z,26.84
2022-09-09T12:13:25.118Z,26.81
2022-09-09T12:14:25.145Z,26.47
2022-09-09T12:15:25.136Z,26.21
2022-09-09T12:16:25.164Z,26.12
2022-09-09T12:17:25.149Z,25.94
2022-09-09T12:18:25.150Z,25.98
2022-09-09T12:19:27.073Z,26.07
2022-09-09T12:20:25.171Z,26.15
2022-09-09T12:21:25.193Z,25.99
2022-09-09T12:22:25.174Z,26.05
2022-09-09T12:23:25.192Z,25.92
2022-09-09T12:24:25.211Z,25.83
2022-09-09T12:25:25.202Z,25.69
2022-09-09T12:26:25.227Z,25.55
2022-09-09T12:27:25.227Z,25.55
2022-09-09T12:28:25.249Z,25.51
2022-09-09T12:29:25.226Z,25.21
2022-09-09T12:30:25.239Z,25.21
2022-09-09T12:31:25.257Z,25.15
2022-09-09T12:32:25.255Z,25.18
2022-09-09T12:33:25.267Z,25.05
2022-09-09T12:34:25.265Z,25.10
2022-09-09T12:35:25.265Z,24.93
2022-09-09T12:36:25.602Z,24.95
2022-09-09T12:37:25.298Z,24.99
2022-09-09T12:38:25.291Z,25.03
2022-09-09T12:39:25.388Z,24.96
2022-09-09T12:40:25.302Z,24.90
2022-09-09T12:41:25.303Z,24.80
2022-09-09T12:42:25.306Z,24.76
2022-09-09T12:43:25.322Z,24.81
2022-09-09T12:44:25.330Z,24.81
2022-09-09T12:45:26.188Z,24.65
2022-09-09T12:46:25.395Z,24.65
2022-09-09T12:47:30.020Z,24.67
2022-09-09T12:48:25.343Z,24.65
2022-09-09T12:49:25.394Z,24.64
2022-09-09T12:50:25.360Z,24.65
2022-09-09T12:51:25.367Z,24.50
2022-09-09T12:52:25.371Z,24.62
2022-09-09T12:53:26.516Z,24.65
2022-09-09T12:54:25.397Z,24.64
2022-09-09T12:55:25.400Z,24.65
2022-09-09T12:56:25.409Z,24.60
2022-09-09T12:57:25.416Z,24.62
2022-09-09T12:58:25.437Z,24.61
2022-09-09T12:59:25.426Z,24.58
2022-09-09T13:00:25.435Z,24.64
2022-09-09T13:01:25.570Z,24.62
2022-09-09T13:02:25.520Z,24.64